sensor_id;sensor_type;location;lat;lon;timestamp;pressure;altitude;pressure_sealevel;temperature;humidity
79527;BME280;68974;47.754;-3.364;2023-10-31T00:00:43;99934.13;;;11.14;90.26
79527;BME280;68974;47.754;-3.364;2023-10-31T00:03:09;99945.22;;;11.09;90.61
79527;BME280;68974;47.754;-3.364;2023-10-31T00:05:35;99953.47;;;11.09;90.72
79527;BME280;68974;47.754;-3.364;2023-10-31T00:08:01;99958.97;;;11.09;90.48
79527;BME280;68974;47.754;-3.364;2023-10-31T00:10:26;99956.22;;;11.09;90.58
79527;BME280;68974;47.754;-3.364;2023-10-31T00:12:52;99965.81;;;11.12;89.94
79527;BME280;68974;47.754;-3.364;2023-10-31T00:15:17;99969.47;;;11.07;90.24
79527;BME280;68974;47.754;-3.364;2023-10-31T00:17:43;99968.84;;;11.10;90.11
79527;BME280;68974;47.754;-3.364;2023-10-31T00:20:08;99984.75;;;11.13;90.35
79527;BME280;68974;47.754;-3.364;2023-10-31T00:22:34;99982.50;;;11.15;89.94
79527;BME280;68974;47.754;-3.364;2023-10-31T00:24:59;99990.34;;;11.08;90.09
79527;BME280;68974;47.754;-3.364;2023-10-31T00:27:24;99989.31;;;11.04;90.33
79527;BME280;68974;47.754;-3.364;2023-10-31T00:29:50;99994.28;;;11.02;90.34
79527;BME280;68974;47.754;-3.364;2023-10-31T00:32:15;100001.19;;;11.00;90.84
79527;BME280;68974;47.754;-3.364;2023-10-31T00:34:41;100003.16;;;10.99;91.13
79527;BME280;68974;47.754;-3.364;2023-10-31T00:37:06;100014.63;;;11.01;91.00
79527;BME280;68974;47.754;-3.364;2023-10-31T00:39:31;100009.94;;;11.02;90.40
79527;BME280;68974;47.754;-3.364;2023-10-31T00:41:59;100023.41;;;11.03;90.78
79527;BME280;68974;47.754;-3.364;2023-10-31T00:44:24;100020.56;;;11.08;90.72
79527;BME280;68974;47.754;-3.364;2023-10-31T00:46:50;100025.25;;;11.08;90.64
79527;BME280;68974;47.754;-3.364;2023-10-31T00:49:15;100029.94;;;11.07;90.36
79527;BME280;68974;47.754;-3.364;2023-10-31T00:51:40;100037.63;;;11.05;90.38
79527;BME280;68974;47.754;-3.364;2023-10-31T00:54:06;100036.34;;;11.16;90.59
79527;BME280;68974;47.754;-3.364;2023-10-31T00:56:31;100041.94;;;11.11;90.24
79527;BME280;68974;47.754;-3.364;2023-10-31T00:58:57;100047.88;;;11.18;90.58
79527;BME280;68974;47.754;-3.364;2023-10-31T01:01:22;100050.09;;;11.16;90.54
79527;BME280;68974;47.754;-3.364;2023-10-31T01:03:47;100053.66;;;11.17;90.66
79527;BME280;68974;47.754;-3.364;2023-10-31T01:06:13;100047.56;;;11.20;90.71
79527;BME280;68974;47.754;-3.364;2023-10-31T01:08:38;100064.38;;;11.18;90.59
79527;BME280;68974;47.754;-3.364;2023-10-31T01:11:03;100063.84;;;11.16;90.65
79527;BME280;68974;47.754;-3.364;2023-10-31T01:13:29;100064.97;;;11.15;91.38
79527;BME280;68974;47.754;-3.364;2023-10-31T01:15:55;100072.53;;;11.23;90.59
79527;BME280;68974;47.754;-3.364;2023-10-31T01:18:20;100067.25;;;11.27;90.25
79527;BME280;68974;47.754;-3.364;2023-10-31T01:20:46;100072.00;;;11.21;90.37
79527;BME280;68974;47.754;-3.364;2023-10-31T01:23:11;100084.19;;;11.15;90.72
79527;BME280;68974;47.754;-3.364;2023-10-31T01:25:37;100082.63;;;11.09;91.30
79527;BME280;68974;47.754;-3.364;2023-10-31T01:28:02;100093.97;;;11.08;91.52
79527;BME280;68974;47.754;-3.364;2023-10-31T01:30:28;100092.25;;;11.12;91.38
79527;BME280;68974;47.754;-3.364;2023-10-31T01:32:53;100101.09;;;11.09;91.22
79527;BME280;68974;47.754;-3.364;2023-10-31T01:35:18;100100.28;;;11.08;91.86
79527;BME280;68974;47.754;-3.364;2023-10-31T01:37:44;100090.38;;;11.07;92.03
79527;BME280;68974;47.754;-3.364;2023-10-31T01:40:12;100093.06;;;11.12;91.55
79527;BME280;68974;47.754;-3.364;2023-10-31T01:42:38;100112.22;;;11.17;91.45
79527;BME280;68974;47.754;-3.364;2023-10-31T01:45:03;100111.19;;;11.13;91.94
79527;BME280;68974;47.754;-3.364;2023-10-31T01:47:29;100115.03;;;11.12;92.20
79527;BME280;68974;47.754;-3.364;2023-10-31T01:49:55;100110.13;;;11.09;92.14
79527;BME280;68974;47.754;-3.364;2023-10-31T01:52:21;100120.97;;;11.19;92.81
79527;BME280;68974;47.754;-3.364;2023-10-31T01:54:49;100124.22;;;11.21;91.92
79527;BME280;68974;47.754;-3.364;2023-10-31T01:57:15;100126.09;;;11.26;92.15
79527;BME280;68974;47.754;-3.364;2023-10-31T01:59:41;100125.88;;;11.22;92.25
79527;BME280;68974;47.754;-3.364;2023-10-31T02:02:06;100120.97;;;11.19;92.43
79527;BME280;68974;47.754;-3.364;2023-10-31T02:04:33;100127.44;;;11.28;92.02
79527;BME280;68974;47.754;-3.364;2023-10-31T02:06:58;100137.91;;;11.26;92.30
79527;BME280;68974;47.754;-3.364;2023-10-31T02:09:24;100135.44;;;11.25;92.52
79527;BME280;68974;47.754;-3.364;2023-10-31T02:11:51;100140.66;;;11.26;92.10
79527;BME280;68974;47.754;-3.364;2023-10-31T02:14:18;100133.63;;;11.34;92.30
79527;BME280;68974;47.754;-3.364;2023-10-31T02:16:43;100146.69;;;11.28;92.21
79527;BME280;68974;47.754;-3.364;2023-10-31T02:19:09;100149.09;;;11.30;92.50
79527;BME280;68974;47.754;-3.364;2023-10-31T02:21:39;100149.34;;;11.34;92.01
79527;BME280;68974;47.754;-3.364;2023-10-31T02:24:05;100159.13;;;11.40;92.04
79527;BME280;68974;47.754;-3.364;2023-10-31T02:26:34;100162.97;;;11.39;92.06
79527;BME280;68974;47.754;-3.364;2023-10-31T02:29:00;100170.13;;;11.40;91.91
79527;BME280;68974;47.754;-3.364;2023-10-31T02:31:26;100169.81;;;11.41;91.77
79527;BME280;68974;47.754;-3.364;2023-10-31T02:33:52;100181.72;;;11.37;91.73
79527;BME280;68974;47.754;-3.364;2023-10-31T02:36:18;100183.94;;;11.35;91.91
79527;BME280;68974;47.754;-3.364;2023-10-31T02:38:43;100188.25;;;11.41;91.34
79527;BME280;68974;47.754;-3.364;2023-10-31T02:41:09;100182.47;;;11.42;91.79
79527;BME280;68974;47.754;-3.364;2023-10-31T02:43:34;100191.09;;;11.36;91.95
79527;BME280;68974;47.754;-3.364;2023-10-31T02:46:00;100186.19;;;11.33;92.01
79527;BME280;68974;47.754;-3.364;2023-10-31T02:48:26;100191.91;;;11.36;91.65
79527;BME280;68974;47.754;-3.364;2023-10-31T02:50:52;100189.44;;;11.35;91.69
79527;BME280;68974;47.754;-3.364;2023-10-31T02:53:20;100188.41;;;11.30;91.78
79527;BME280;68974;47.754;-3.364;2023-10-31T02:55:46;100189.59;;;11.24;91.98
79527;BME280;68974;47.754;-3.364;2023-10-31T02:58:11;100197.28;;;11.27;92.11
79527;BME280;68974;47.754;-3.364;2023-10-31T03:00:37;100207.25;;;11.23;92.50
79527;BME280;68974;47.754;-3.364;2023-10-31T03:03:02;100213.84;;;11.22;92.60
79527;BME280;68974;47.754;-3.364;2023-10-31T03:05:28;100198.19;;;11.23;92.16
79527;BME280;68974;47.754;-3.364;2023-10-31T03:07:53;100201.22;;;11.21;92.93
79527;BME280;68974;47.754;-3.364;2023-10-31T03:10:20;100212.22;;;11.21;92.42
79527;BME280;68974;47.754;-3.364;2023-10-31T03:12:45;100209.38;;;11.26;92.32
79527;BME280;68974;47.754;-3.364;2023-10-31T03:15:11;100215.16;;;11.25;92.36
79527;BME280;68974;47.754;-3.364;2023-10-31T03:17:36;100211.59;;;11.24;92.65
79527;BME280;68974;47.754;-3.364;2023-10-31T03:20:02;100216.38;;;11.38;92.07
79527;BME280;68974;47.754;-3.364;2023-10-31T03:22:28;100219.13;;;11.38;91.70
79527;BME280;68974;47.754;-3.364;2023-10-31T03:24:53;100220.56;;;11.49;91.68
79527;BME280;68974;47.754;-3.364;2023-10-31T03:27:19;100220.47;;;11.54;91.09
79527;BME280;68974;47.754;-3.364;2023-10-31T03:29:44;100220.56;;;11.49;91.19
79527;BME280;68974;47.754;-3.364;2023-10-31T03:32:11;100224.38;;;11.53;91.53
79527;BME280;68974;47.754;-3.364;2023-10-31T03:34:36;100224.97;;;11.50;91.39
79527;BME280;68974;47.754;-3.364;2023-10-31T03:37:02;100232.31;;;11.54;91.73
79527;BME280;68974;47.754;-3.364;2023-10-31T03:39:28;100232.31;;;11.54;91.40
79527;BME280;68974;47.754;-3.364;2023-10-31T03:41:53;100244.13;;;11.55;91.62
79527;BME280;68974;47.754;-3.364;2023-10-31T03:44:19;100238.84;;;11.58;91.36
79527;BME280;68974;47.754;-3.364;2023-10-31T03:46:44;100243.34;;;11.68;90.66
79527;BME280;68974;47.754;-3.364;2023-10-31T03:49:10;100246.50;;;11.61;90.75
79527;BME280;68974;47.754;-3.364;2023-10-31T03:51:35;100246.81;;;11.60;90.75
79527;BME280;68974;47.754;-3.364;2023-10-31T03:54:00;100245.16;;;11.59;90.95
79527;BME280;68974;47.754;-3.364;2023-10-31T03:56:26;100251.28;;;11.56;91.09
79527;BME280;68974;47.754;-3.364;2023-10-31T03:58:51;100252.91;;;11.57;90.94
79527;BME280;68974;47.754;-3.364;2023-10-31T04:01:17;100259.00;;;11.54;91.29
79527;BME280;68974;47.754;-3.364;2023-10-31T04:03:45;100260.13;;;11.53;91.27
79527;BME280;68974;47.754;-3.364;2023-10-31T04:06:10;100256.31;;;11.49;90.90
79527;BME280;68974;47.754;-3.364;2023-10-31T04:08:36;100257.06;;;11.54;91.27
79527;BME280;68974;47.754;-3.364;2023-10-31T04:11:01;100258.50;;;11.52;91.44
79527;BME280;68974;47.754;-3.364;2023-10-31T04:13:26;100266.13;;;11.55;91.32
79527;BME280;68974;47.754;-3.364;2023-10-31T04:15:52;100271.63;;;11.55;91.49
79527;BME280;68974;47.754;-3.364;2023-10-31T04:18:17;100275.41;;;11.59;91.46
79527;BME280;68974;47.754;-3.364;2023-10-31T04:20:44;100280.84;;;11.64;91.75
79527;BME280;68974;47.754;-3.364;2023-10-31T04:23:09;100295.63;;;11.68;91.41
79527;BME280;68974;47.754;-3.364;2023-10-31T04:25:36;100297.28;;;11.88;90.76
79527;BME280;68974;47.754;-3.364;2023-10-31T04:28:02;100289.53;;;11.90;90.48
79527;BME280;68974;47.754;-3.364;2023-10-31T04:30:28;100284.94;;;11.85;90.21
79527;BME280;68974;47.754;-3.364;2023-10-31T04:32:54;100283.22;;;11.89;90.75
79527;BME280;68974;47.754;-3.364;2023-10-31T04:35:19;100289.34;;;11.86;90.43
79527;BME280;68974;47.754;-3.364;2023-10-31T04:37:45;100283.31;;;11.84;91.06
79527;BME280;68974;47.754;-3.364;2023-10-31T04:40:11;100283.19;;;11.76;91.57
79527;BME280;68974;47.754;-3.364;2023-10-31T04:42:38;100296.13;;;11.75;91.37
79527;BME280;68974;47.754;-3.364;2023-10-31T04:45:05;100304.94;;;11.72;91.72
79527;BME280;68974;47.754;-3.364;2023-10-31T04:47:31;100300.91;;;11.64;91.87
79527;BME280;68974;47.754;-3.364;2023-10-31T04:49:56;100304.28;;;11.61;91.83
79527;BME280;68974;47.754;-3.364;2023-10-31T04:52:21;100304.84;;;11.58;92.26
79527;BME280;68974;47.754;-3.364;2023-10-31T04:54:48;100306.50;;;11.59;92.42
79527;BME280;68974;47.754;-3.364;2023-10-31T04:57:13;100308.16;;;11.60;92.24
79527;BME280;68974;47.754;-3.364;2023-10-31T04:59:38;100307.94;;;11.57;92.62
79527;BME280;68974;47.754;-3.364;2023-10-31T05:02:04;100308.00;;;11.52;92.47
79527;BME280;68974;47.754;-3.364;2023-10-31T05:04:29;100315.22;;;11.48;92.59
79527;BME280;68974;47.754;-3.364;2023-10-31T05:06:55;100318.03;;;11.43;92.67
79527;BME280;68974;47.754;-3.364;2023-10-31T05:09:21;100315.38;;;11.38;92.34
79527;BME280;68974;47.754;-3.364;2023-10-31T05:11:46;100310.44;;;11.35;92.47
79527;BME280;68974;47.754;-3.364;2023-10-31T05:14:12;100320.94;;;11.33;92.80
79527;BME280;68974;47.754;-3.364;2023-10-31T05:16:42;100317.16;;;11.28;92.77
79527;BME280;68974;47.754;-3.364;2023-10-31T05:19:08;100332.50;;;11.29;93.15
79527;BME280;68974;47.754;-3.364;2023-10-31T05:21:34;100340.03;;;11.43;93.39
79527;BME280;68974;47.754;-3.364;2023-10-31T05:23:59;100343.75;;;11.52;93.72
79527;BME280;68974;47.754;-3.364;2023-10-31T05:26:25;100337.72;;;11.50;93.49
79527;BME280;68974;47.754;-3.364;2023-10-31T05:28:50;100340.94;;;11.57;93.42
79527;BME280;68974;47.754;-3.364;2023-10-31T05:31:15;100343.75;;;11.52;93.55
79527;BME280;68974;47.754;-3.364;2023-10-31T05:33:41;100344.44;;;11.62;93.34
79527;BME280;68974;47.754;-3.364;2023-10-31T05:36:17;100350.00;;;11.57;93.05
79527;BME280;68974;47.754;-3.364;2023-10-31T05:38:43;100351.13;;;11.56;93.26
79527;BME280;68974;47.754;-3.364;2023-10-31T05:41:08;100352.97;;;11.61;93.21
79527;BME280;68974;47.754;-3.364;2023-10-31T05:43:33;100357.38;;;11.62;93.78
79527;BME280;68974;47.754;-3.364;2023-10-31T05:45:59;100354.00;;;11.65;93.50
79527;BME280;68974;47.754;-3.364;2023-10-31T05:48:24;100358.91;;;11.68;93.61
79527;BME280;68974;47.754;-3.364;2023-10-31T05:50:50;100358.34;;;11.71;93.64
79527;BME280;68974;47.754;-3.364;2023-10-31T05:53:15;100364.28;;;11.78;93.39
79527;BME280;68974;47.754;-3.364;2023-10-31T05:55:41;100369.81;;;11.78;93.99
79527;BME280;68974;47.754;-3.364;2023-10-31T05:58:06;100365.38;;;11.82;93.66
79527;BME280;68974;47.754;-3.364;2023-10-31T06:00:31;100374.34;;;11.88;93.39
79527;BME280;68974;47.754;-3.364;2023-10-31T06:02:57;100373.00;;;11.85;93.24
79527;BME280;68974;47.754;-3.364;2023-10-31T06:05:22;100374.13;;;11.84;92.90
79527;BME280;68974;47.754;-3.364;2023-10-31T06:07:47;100381.56;;;11.84;92.70
79527;BME280;68974;47.754;-3.364;2023-10-31T06:10:13;100385.75;;;11.81;93.11
79527;BME280;68974;47.754;-3.364;2023-10-31T06:12:38;100389.53;;;11.85;93.15
79527;BME280;68974;47.754;-3.364;2023-10-31T06:15:04;100379.47;;;11.94;93.65
79527;BME280;68974;47.754;-3.364;2023-10-31T06:17:30;100388.31;;;12.10;93.59
79527;BME280;68974;47.754;-3.364;2023-10-31T06:19:58;100392.31;;;12.18;93.54
79527;BME280;68974;47.754;-3.364;2023-10-31T06:22:24;100393.44;;;12.17;93.55
79527;BME280;68974;47.754;-3.364;2023-10-31T06:24:50;100398.06;;;12.21;93.78
79527;BME280;68974;47.754;-3.364;2023-10-31T06:27:15;100390.38;;;12.18;93.71
79527;BME280;68974;47.754;-3.364;2023-10-31T06:29:40;100391.19;;;12.19;93.83
79527;BME280;68974;47.754;-3.364;2023-10-31T06:32:06;100387.94;;;12.17;94.00
79527;BME280;68974;47.754;-3.364;2023-10-31T06:34:31;100398.44;;;12.14;93.87
79527;BME280;68974;47.754;-3.364;2023-10-31T06:36:57;100390.16;;;12.14;94.03
79527;BME280;68974;47.754;-3.364;2023-10-31T06:39:22;100396.91;;;12.22;93.98
79527;BME280;68974;47.754;-3.364;2023-10-31T06:41:48;100389.38;;;12.28;92.66
79527;BME280;68974;47.754;-3.364;2023-10-31T06:44:13;100389.19;;;12.24;92.65
79527;BME280;68974;47.754;-3.364;2023-10-31T06:46:39;100397.97;;;12.26;92.73
79527;BME280;68974;47.754;-3.364;2023-10-31T06:49:04;100388.19;;;12.34;92.57
79527;BME280;68974;47.754;-3.364;2023-10-31T06:51:29;100399.47;;;12.51;91.72
79527;BME280;68974;47.754;-3.364;2023-10-31T06:53:55;100396.81;;;12.46;91.86
79527;BME280;68974;47.754;-3.364;2023-10-31T06:56:20;100398.50;;;12.42;92.15
79527;BME280;68974;47.754;-3.364;2023-10-31T06:58:46;100403.13;;;12.46;92.04
79527;BME280;68974;47.754;-3.364;2023-10-31T07:01:11;100398.25;;;12.57;91.46
79527;BME280;68974;47.754;-3.364;2023-10-31T07:03:38;100408.78;;;12.55;91.34
79527;BME280;68974;47.754;-3.364;2023-10-31T07:06:04;100410.91;;;12.58;90.79
79527;BME280;68974;47.754;-3.364;2023-10-31T07:08:29;100422.06;;;12.67;90.23
79527;BME280;68974;47.754;-3.364;2023-10-31T07:10:55;100424.00;;;12.66;89.69
79527;BME280;68974;47.754;-3.364;2023-10-31T07:13:20;100417.28;;;12.72;89.79
79527;BME280;68974;47.754;-3.364;2023-10-31T07:15:46;100424.75;;;12.85;89.31
79527;BME280;68974;47.754;-3.364;2023-10-31T07:18:12;100426.91;;;12.88;89.37
79527;BME280;68974;47.754;-3.364;2023-10-31T07:20:38;100441.13;;;13.09;89.00
79527;BME280;68974;47.754;-3.364;2023-10-31T07:23:03;100450.75;;;13.12;89.26
79527;BME280;68974;47.754;-3.364;2023-10-31T07:25:28;100463.88;;;13.01;89.56
79527;BME280;68974;47.754;-3.364;2023-10-31T07:27:54;100462.66;;;12.93;90.54
79527;BME280;68974;47.754;-3.364;2023-10-31T07:30:19;100469.81;;;12.94;90.84
79527;BME280;68974;47.754;-3.364;2023-10-31T07:32:45;100474.63;;;13.02;90.39
79527;BME280;68974;47.754;-3.364;2023-10-31T07:35:11;100470.75;;;13.03;90.90
79527;BME280;68974;47.754;-3.364;2023-10-31T07:37:36;100469.38;;;12.87;91.09
79527;BME280;68974;47.754;-3.364;2023-10-31T07:40:02;100472.22;;;12.82;91.37
79527;BME280;68974;47.754;-3.364;2023-10-31T07:42:29;100474.03;;;12.73;91.68
79527;BME280;68974;47.754;-3.364;2023-10-31T07:44:55;100465.66;;;12.65;92.17
79527;BME280;68974;47.754;-3.364;2023-10-31T07:47:21;100461.44;;;12.67;91.82
79527;BME280;68974;47.754;-3.364;2023-10-31T07:49:46;100479.72;;;12.63;91.99
79527;BME280;68974;47.754;-3.364;2023-10-31T07:52:13;100487.91;;;12.68;91.41
79527;BME280;68974;47.754;-3.364;2023-10-31T07:54:39;100476.09;;;12.81;90.52
79527;BME280;68974;47.754;-3.364;2023-10-31T07:57:06;100495.78;;;12.75;90.10
79527;BME280;68974;47.754;-3.364;2023-10-31T07:59:34;100483.88;;;12.79;90.22
79527;BME280;68974;47.754;-3.364;2023-10-31T08:02:00;100481.59;;;12.81;90.09
79527;BME280;68974;47.754;-3.364;2023-10-31T08:04:25;100489.69;;;12.91;89.39
79527;BME280;68974;47.754;-3.364;2023-10-31T08:06:51;100490.03;;;13.03;89.40
79527;BME280;68974;47.754;-3.364;2023-10-31T08:09:16;100493.81;;;13.08;89.40
79527;BME280;68974;47.754;-3.364;2023-10-31T08:11:42;100495.41;;;13.14;88.90
79527;BME280;68974;47.754;-3.364;2023-10-31T08:14:10;100502.25;;;13.16;89.36
79527;BME280;68974;47.754;-3.364;2023-10-31T08:16:35;100502.34;;;13.25;89.51
79527;BME280;68974;47.754;-3.364;2023-10-31T08:19:01;100498.47;;;13.39;89.28
79527;BME280;68974;47.754;-3.364;2023-10-31T08:21:27;100508.91;;;13.70;88.58
79527;BME280;68974;47.754;-3.364;2023-10-31T08:23:59;100521.09;;;13.82;87.81
79527;BME280;68974;47.754;-3.364;2023-10-31T08:26:24;100513.84;;;13.73;86.31
79527;BME280;68974;47.754;-3.364;2023-10-31T08:28:49;100517.72;;;13.58;84.73
79527;BME280;68974;47.754;-3.364;2023-10-31T08:31:16;100519.25;;;13.51;84.88
79527;BME280;68974;47.754;-3.364;2023-10-31T08:33:42;100533.44;;;13.44;85.55
79527;BME280;68974;47.754;-3.364;2023-10-31T08:36:07;100531.91;;;13.38;86.90
79527;BME280;68974;47.754;-3.364;2023-10-31T08:38:33;100533.13;;;13.32;87.87
79527;BME280;68974;47.754;-3.364;2023-10-31T08:40:59;100525.47;;;13.29;88.18
79527;BME280;68974;47.754;-3.364;2023-10-31T08:43:24;100533.22;;;13.27;88.09
79527;BME280;68974;47.754;-3.364;2023-10-31T08:45:50;100546.53;;;13.38;87.85
79527;BME280;68974;47.754;-3.364;2023-10-31T08:48:16;100541.94;;;13.34;88.15
79527;BME280;68974;47.754;-3.364;2023-10-31T08:50:41;100543.06;;;13.47;87.89
79527;BME280;68974;47.754;-3.364;2023-10-31T08:53:06;100535.41;;;13.71;86.21
79527;BME280;68974;47.754;-3.364;2023-10-31T08:55:34;100543.19;;;14.32;85.66
79527;BME280;68974;47.754;-3.364;2023-10-31T08:58:00;100535.00;;;15.52;79.85
79527;BME280;68974;47.754;-3.364;2023-10-31T09:00:25;100536.19;;;16.33;75.93
79527;BME280;68974;47.754;-3.364;2023-10-31T09:02:53;100541.91;;;17.06;72.87
79527;BME280;68974;47.754;-3.364;2023-10-31T09:05:19;100541.13;;;17.60;71.16
79527;BME280;68974;47.754;-3.364;2023-10-31T09:07:44;100543.19;;;18.60;67.79
79527;BME280;68974;47.754;-3.364;2023-10-31T09:10:12;100545.81;;;18.98;65.73
79527;BME280;68974;47.754;-3.364;2023-10-31T09:12:37;100549.00;;;19.21;65.17
79527;BME280;68974;47.754;-3.364;2023-10-31T09:15:03;100555.53;;;19.25;64.18
79527;BME280;68974;47.754;-3.364;2023-10-31T09:17:29;100551.50;;;19.01;65.24
79527;BME280;68974;47.754;-3.364;2023-10-31T09:19:54;100544.88;;;19.72;61.87
79527;BME280;68974;47.754;-3.364;2023-10-31T09:22:20;100556.94;;;19.31;62.99
79527;BME280;68974;47.754;-3.364;2023-10-31T09:24:45;100553.63;;;19.04;63.24
79527;BME280;68974;47.754;-3.364;2023-10-31T09:27:11;100547.53;;;19.68;60.04
79527;BME280;68974;47.754;-3.364;2023-10-31T09:29:36;100559.47;;;19.24;60.91
79527;BME280;68974;47.754;-3.364;2023-10-31T09:32:02;100569.19;;;18.64;62.36
79527;BME280;68974;47.754;-3.364;2023-10-31T09:34:28;100570.69;;;17.65;65.01
79527;BME280;68974;47.754;-3.364;2023-10-31T09:36:54;100566.59;;;16.99;67.91
79527;BME280;68974;47.754;-3.364;2023-10-31T09:39:19;100580.63;;;16.68;68.48
79527;BME280;68974;47.754;-3.364;2023-10-31T09:41:45;100581.28;;;16.91;67.49
79527;BME280;68974;47.754;-3.364;2023-10-31T09:44:10;100579.00;;;16.84;67.68
79527;BME280;68974;47.754;-3.364;2023-10-31T09:46:36;100575.72;;;16.65;68.48
79527;BME280;68974;47.754;-3.364;2023-10-31T09:49:02;100579.66;;;16.81;68.55
79527;BME280;68974;47.754;-3.364;2023-10-31T09:51:28;100583.16;;;17.59;66.58
79527;BME280;68974;47.754;-3.364;2023-10-31T09:53:54;100582.22;;;18.22;64.22
79527;BME280;68974;47.754;-3.364;2023-10-31T09:56:21;100580.22;;;18.52;63.35
79527;BME280;68974;47.754;-3.364;2023-10-31T09:58:47;100580.53;;;18.30;62.74
79527;BME280;68974;47.754;-3.364;2023-10-31T10:01:12;100586.91;;;18.01;63.00
79527;BME280;68974;47.754;-3.364;2023-10-31T10:03:40;100574.50;;;17.90;63.21
79527;BME280;68974;47.754;-3.364;2023-10-31T10:06:05;100587.69;;;17.55;64.09
79527;BME280;68974;47.754;-3.364;2023-10-31T10:08:31;100591.81;;;17.40;65.96
79527;BME280;68974;47.754;-3.364;2023-10-31T10:10:57;100586.47;;;17.18;66.64
79527;BME280;68974;47.754;-3.364;2023-10-31T10:13:23;100590.03;;;17.36;66.64
79527;BME280;68974;47.754;-3.364;2023-10-31T10:15:49;100584.44;;;17.53;65.59
79527;BME280;68974;47.754;-3.364;2023-10-31T10:18:30;100582.81;;;17.52;66.03
79527;BME280;68974;47.754;-3.364;2023-10-31T10:20:58;100589.09;;;17.23;66.60
79527;BME280;68974;47.754;-3.364;2023-10-31T10:23:24;100591.66;;;17.37;65.97
79527;BME280;68974;47.754;-3.364;2023-10-31T10:25:51;100589.50;;;17.51;65.40
79527;BME280;68974;47.754;-3.364;2023-10-31T10:28:17;100589.81;;;17.66;64.47
79527;BME280;68974;47.754;-3.364;2023-10-31T10:30:44;100593.94;;;17.43;66.08
79527;BME280;68974;47.754;-3.364;2023-10-31T10:33:10;100597.06;;;17.33;65.43
79527;BME280;68974;47.754;-3.364;2023-10-31T10:35:35;100601.03;;;17.87;64.50
79527;BME280;68974;47.754;-3.364;2023-10-31T10:38:02;100602.69;;;18.17;63.05
79527;BME280;68974;47.754;-3.364;2023-10-31T10:40:28;100597.81;;;18.06;63.83
79527;BME280;68974;47.754;-3.364;2023-10-31T10:42:58;100608.69;;;17.90;64.64
79527;BME280;68974;47.754;-3.364;2023-10-31T10:45:25;100610.00;;;17.84;63.68
79527;BME280;68974;47.754;-3.364;2023-10-31T10:47:51;100605.91;;;17.90;64.43
79527;BME280;68974;47.754;-3.364;2023-10-31T10:50:20;100613.13;;;18.50;64.46
79527;BME280;68974;47.754;-3.364;2023-10-31T10:52:54;100598.25;;;19.29;61.48
79527;BME280;68974;47.754;-3.364;2023-10-31T10:55:27;100615.78;;;19.62;58.46
79527;BME280;68974;47.754;-3.364;2023-10-31T10:58:05;100606.06;;;19.68;59.39
79527;BME280;68974;47.754;-3.364;2023-10-31T11:00:31;100616.41;;;18.93;61.74
79527;BME280;68974;47.754;-3.364;2023-10-31T11:02:57;100612.94;;;18.26;63.90
79527;BME280;68974;47.754;-3.364;2023-10-31T11:05:23;100614.75;;;18.51;64.81
79527;BME280;68974;47.754;-3.364;2023-10-31T11:07:49;100611.19;;;19.78;61.10
79527;BME280;68974;47.754;-3.364;2023-10-31T11:10:17;100623.22;;;19.58;60.80
79527;BME280;68974;47.754;-3.364;2023-10-31T11:12:43;100616.84;;;19.37;61.38
79527;BME280;68974;47.754;-3.364;2023-10-31T11:15:10;100605.13;;;19.64;60.37
79527;BME280;68974;47.754;-3.364;2023-10-31T11:17:39;100598.44;;;20.38;58.35
79527;BME280;68974;47.754;-3.364;2023-10-31T11:20:07;100600.69;;;20.85;56.12
79527;BME280;68974;47.754;-3.364;2023-10-31T11:22:40;100617.03;;;20.22;59.08
79527;BME280;68974;47.754;-3.364;2023-10-31T11:25:11;100607.38;;;19.50;60.22
79527;BME280;68974;47.754;-3.364;2023-10-31T11:27:37;100605.78;;;19.28;61.27
79527;BME280;68974;47.754;-3.364;2023-10-31T11:30:34;100603.91;;;19.20;62.05
79527;BME280;68974;47.754;-3.364;2023-10-31T11:33:00;100602.84;;;18.71;64.08
79527;BME280;68974;47.754;-3.364;2023-10-31T11:35:30;100600.28;;;18.37;64.60
79527;BME280;68974;47.754;-3.364;2023-10-31T11:38:03;100597.88;;;17.89;66.35
79527;BME280;68974;47.754;-3.364;2023-10-31T11:40:35;100601.44;;;17.60;68.28
79527;BME280;68974;47.754;-3.364;2023-10-31T11:43:05;100602.63;;;17.33;69.25
79527;BME280;68974;47.754;-3.364;2023-10-31T11:45:42;100592.22;;;17.04;69.36
79527;BME280;68974;47.754;-3.364;2023-10-31T11:48:10;100598.25;;;16.80;70.78
79527;BME280;68974;47.754;-3.364;2023-10-31T11:50:37;100604.75;;;16.59;71.28
79527;BME280;68974;47.754;-3.364;2023-10-31T11:53:07;100605.03;;;16.48;72.99
79527;BME280;68974;47.754;-3.364;2023-10-31T11:55:39;100598.31;;;16.32;73.09
79527;BME280;68974;47.754;-3.364;2023-10-31T11:58:18;100589.53;;;16.30;73.01
79527;BME280;68974;47.754;-3.364;2023-10-31T12:00:46;100602.41;;;16.26;73.66
79527;BME280;68974;47.754;-3.364;2023-10-31T12:03:12;100598.97;;;16.38;73.81
79527;BME280;68974;47.754;-3.364;2023-10-31T12:05:38;100596.06;;;16.43;72.87
79527;BME280;68974;47.754;-3.364;2023-10-31T12:08:03;100592.66;;;16.55;72.50
79527;BME280;68974;47.754;-3.364;2023-10-31T12:10:35;100581.06;;;16.44;72.03
79527;BME280;68974;47.754;-3.364;2023-10-31T12:13:00;100584.66;;;16.44;72.13
79527;BME280;68974;47.754;-3.364;2023-10-31T12:15:26;100589.22;;;16.32;70.66
79527;BME280;68974;47.754;-3.364;2023-10-31T12:17:51;100583.13;;;16.21;71.18
79527;BME280;68974;47.754;-3.364;2023-10-31T12:20:17;100600.22;;;16.15;71.47
79527;BME280;68974;47.754;-3.364;2023-10-31T12:22:43;100597.97;;;16.17;70.71
79527;BME280;68974;47.754;-3.364;2023-10-31T12:25:09;100599.41;;;16.14;71.42
79527;BME280;68974;47.754;-3.364;2023-10-31T12:27:49;100604.44;;;16.03;71.83
79527;BME280;68974;47.754;-3.364;2023-10-31T12:30:16;100597.72;;;15.96;72.51
79527;BME280;68974;47.754;-3.364;2023-10-31T12:32:42;100599.53;;;16.00;73.11
79527;BME280;68974;47.754;-3.364;2023-10-31T12:35:15;100590.41;;;16.00;73.72